createdAt,value
2018-06-03T00:00:00.225Z,40.40
2018-06-03T00:02:29.333Z,44.90
2018-06-03T00:04:58.155Z,42.60
2018-06-03T00:07:26.190Z,45.10
2018-06-03T00:09:54.979Z,42.63
2018-06-03T00:12:23.850Z,43.03
2018-06-03T00:14:52.658Z,42.33
2018-06-03T00:17:21.455Z,45.83
2018-06-03T00:19:49.558Z,47.37
2018-06-03T00:22:22.173Z,41.43
2018-06-03T00:24:50.198Z,38.57
2018-06-03T00:27:18.473Z,41.90
2018-06-03T00:29:47.517Z,47.80
2018-06-03T00:32:15.802Z,42.03
2018-06-03T00:34:45.428Z,42.67
2018-06-03T00:37:17.397Z,42.53
2018-06-03T00:39:45.676Z,42.33
2018-06-03T00:42:13.945Z,40.57
2018-06-03T00:44:43.016Z,41.20
2018-06-03T00:47:11.318Z,40.90
2018-06-03T00:49:39.594Z,41.80
2018-06-03T00:52:08.697Z,42.40
2018-06-03T00:54:37.762Z,43.03
2018-06-03T00:57:08.882Z,41.80
2018-06-03T00:59:37.174Z,42.87
2018-06-03T01:02:09.024Z,42.33
2018-06-03T01:04:37.315Z,42.80
2018-06-03T01:07:09.158Z,41.00
2018-06-03T01:09:37.560Z,48.03
2018-06-03T01:12:09.779Z,42.13
2018-06-03T01:14:38.069Z,43.67
2018-06-03T01:17:06.369Z,45.30
2018-06-03T01:19:36.932Z,51.50
2018-06-03T01:22:05.973Z,42.80
2018-06-03T01:24:34.283Z,47.83
2018-06-03T01:27:02.550Z,48.40
2018-06-03T01:29:30.898Z,42.37
2018-06-03T01:32:02.937Z,44.20
2018-06-03T01:34:31.389Z,44.97
2018-06-03T01:36:59.677Z,50.80
2018-06-03T01:39:28.745Z,51.33
2018-06-03T01:41:57.092Z,51.33
2018-06-03T01:44:25.388Z,49.23
2018-06-03T01:46:54.770Z,45.60
2018-06-03T01:49:23.113Z,52.50
2018-06-03T01:51:53.046Z,52.13
2018-06-03T01:54:21.332Z,49.87
2018-06-03T01:56:49.651Z,48.97
2018-06-03T01:59:18.708Z,47.83
2018-06-03T02:01:48.355Z,47.63
2018-06-03T02:04:17.400Z,45.13
2018-06-03T02:06:45.827Z,49.27
2018-06-03T02:09:14.863Z,50.37
2018-06-03T02:11:43.422Z,50.53
2018-06-03T02:14:11.898Z,49.67
2018-06-03T02:16:41.139Z,51.53
2018-06-03T02:19:09.483Z,56.30
2018-06-03T02:21:37.754Z,48.27
2018-06-03T02:24:06.049Z,43.80
2018-06-03T02:26:34.322Z,43.43
2018-06-03T02:29:02.599Z,48.87
2018-06-03T02:31:30.943Z,43.93
2018-06-03T02:33:59.272Z,47.00
2018-06-03T02:36:27.619Z,45.83
2018-06-03T02:38:57.166Z,51.73
2018-06-03T02:41:27.415Z,48.03
2018-06-03T02:43:56.475Z,49.93
2018-06-03T02:46:24.771Z,50.43
2018-06-03T02:48:53.067Z,48.53
2018-06-03T02:51:24.048Z,51.57
2018-06-03T02:53:52.347Z,47.73
2018-06-03T02:56:24.126Z,49.33
2018-06-03T02:58:52.406Z,50.00
2018-06-03T03:01:21.456Z,52.27
2018-06-03T03:03:49.740Z,51.57
2018-06-03T03:06:18.039Z,47.03
2018-06-03T03:08:46.331Z,50.07
2018-06-03T03:11:15.372Z,49.50
2018-06-03T03:13:43.657Z,48.37
2018-06-03T03:16:11.953Z,52.70
2018-06-03T03:18:40.226Z,47.90
2018-06-03T03:21:09.889Z,49.77
2018-06-03T03:23:38.222Z,49.00
2018-06-03T03:26:07.282Z,49.57
2018-06-03T03:28:35.614Z,50.23
2018-06-03T03:31:03.958Z,54.33
2018-06-03T03:33:32.410Z,53.57
2018-06-03T03:36:00.696Z,50.40
2018-06-03T03:38:28.971Z,50.70
2018-06-03T03:43:31.792Z,51.87
2018-06-03T03:46:00.106Z,52.53
2018-06-03T03:48:28.398Z,48.20
2018-06-03T03:50:56.668Z,52.90
2018-06-03T03:53:26.597Z,54.73
2018-06-03T03:55:54.874Z,53.13
2018-06-03T03:58:23.163Z,54.17
2018-06-03T04:00:55.214Z,59.43
2018-06-03T04:03:23.577Z,53.57
2018-06-03T04:05:51.840Z,58.30
2018-06-03T04:08:20.150Z,53.10
2018-06-03T04:10:48.608Z,56.77
2018-06-03T04:13:16.936Z,52.97
2018-06-03T04:15:45.979Z,56.73
2018-06-03T04:18:14.276Z,47.17
2018-06-03T04:20:42.566Z,54.00
2018-06-03T04:23:10.833Z,53.60
2018-06-03T04:25:42.491Z,52.53
2018-06-03T04:28:10.782Z,56.03
2018-06-03T04:30:39.067Z,54.27
2018-06-03T04:33:08.121Z,51.53
2018-06-03T04:35:36.422Z,50.00
2018-06-03T04:38:05.499Z,53.13
2018-06-03T04:40:33.790Z,52.13
2018-06-03T04:43:02.074Z,54.67
2018-06-03T04:45:31.100Z,56.83
2018-06-03T04:47:59.377Z,53.33
2018-06-03T04:50:27.662Z,56.13
2018-06-03T04:52:55.955Z,51.03
2018-06-03T04:55:24.246Z,53.93
2018-06-03T04:57:52.591Z,56.20
2018-06-03T05:00:20.878Z,53.10
2018-06-03T05:02:49.154Z,58.47
2018-06-03T05:05:17.453Z,57.63
2018-06-03T05:07:45.729Z,58.57
2018-06-03T05:10:14.808Z,59.50
2018-06-03T05:12:47.057Z,57.27
2018-06-03T05:15:16.886Z,54.10
2018-06-03T05:17:46.039Z,56.73
2018-06-03T05:20:15.074Z,50.23
2018-06-03T05:22:43.379Z,48.73
2018-06-03T05:25:12.420Z,42.50
2018-06-03T05:27:40.686Z,38.07
2018-06-03T05:30:09.039Z,40.17
2018-06-03T05:32:37.373Z,40.73
2018-06-03T05:35:05.683Z,42.73
2018-06-03T05:37:36.602Z,43.63
2018-06-03T05:40:04.888Z,47.17
2018-06-03T05:42:34.054Z,41.27
2018-06-03T05:45:03.047Z,48.13
2018-06-03T05:47:32.928Z,47.60
2018-06-03T05:50:02.335Z,54.60
2018-06-03T05:52:30.807Z,51.63
2018-06-03T05:55:00.722Z,42.70
2018-06-03T05:57:28.996Z,50.90
2018-06-03T06:00:01.584Z,53.43
2018-06-03T06:02:29.931Z,53.57
2018-06-03T06:07:40.548Z,51.07
2018-06-03T06:10:08.818Z,50.87
2018-06-03T06:12:37.090Z,56.57
2018-06-03T06:15:08.751Z,62.87
2018-06-03T06:17:37.129Z,58.67
2018-06-03T06:20:05.458Z,53.03
2018-06-03T06:22:34.006Z,63.07
2018-06-03T06:25:02.303Z,57.60
2018-06-03T06:27:31.439Z,51.10
2018-06-03T06:29:59.752Z,62.83
2018-06-03T06:32:28.039Z,62.50
2018-06-03T06:38:07.950Z,67.10
2018-06-03T06:40:36.976Z,68.80
2018-06-03T06:43:05.924Z,64.67
2018-06-03T06:45:34.905Z,68.27
2018-06-03T06:48:04.088Z,70.67
2018-06-03T06:50:33.039Z,67.27
2018-06-03T06:53:02.340Z,65.93
2018-06-03T06:55:31.428Z,67.90
2018-06-03T06:58:00.748Z,58.73
2018-06-03T07:00:29.820Z,67.27
2018-06-03T07:02:58.879Z,71.90
2018-06-03T07:05:27.854Z,75.03
2018-06-03T07:07:56.824Z,77.23
2018-06-03T07:10:25.933Z,61.47
2018-06-03T07:12:54.911Z,74.77
2018-06-03T07:15:23.890Z,66.33
2018-06-03T07:17:53.154Z,71.37
2018-06-03T07:20:21.911Z,61.23
2018-06-03T07:22:50.986Z,59.83
2018-06-03T07:25:19.991Z,68.57
2018-06-03T07:27:49.084Z,72.93
2018-06-03T07:30:17.998Z,69.77
2018-06-03T07:32:46.974Z,70.37
2018-06-03T07:35:16.082Z,73.47
2018-06-03T07:37:47.267Z,69.00
2018-06-03T07:40:16.203Z,68.67
2018-06-03T07:42:45.151Z,61.20
2018-06-03T07:45:14.137Z,61.77
2018-06-03T07:47:43.201Z,61.03
2018-06-03T07:50:12.150Z,63.03
2018-06-03T07:52:42.865Z,59.97
2018-06-03T07:55:11.858Z,62.27
2018-06-03T07:57:40.898Z,58.20
2018-06-03T08:00:10.029Z,61.73
2018-06-03T08:02:38.986Z,63.10
2018-06-03T08:05:08.058Z,65.70
2018-06-03T08:07:36.969Z,60.90
2018-06-03T08:10:05.990Z,59.20
2018-06-03T08:12:35.088Z,65.97
2018-06-03T08:15:04.338Z,62.10
2018-06-03T08:17:33.379Z,69.37
2018-06-03T08:20:05.750Z,66.00
2018-06-03T08:22:35.062Z,62.00
2018-06-03T08:25:04.036Z,59.73
2018-06-03T08:27:33.075Z,58.37
2018-06-03T08:30:02.277Z,55.03
2018-06-03T08:32:31.386Z,57.97
2018-06-03T08:35:00.364Z,51.53
2018-06-03T08:37:29.389Z,51.27
2018-06-03T08:39:59.430Z,54.53
2018-06-03T08:42:28.363Z,50.77
2018-06-03T08:44:59.322Z,51.30
2018-06-03T08:47:28.289Z,52.50
2018-06-03T08:49:57.327Z,49.17
2018-06-03T08:52:26.276Z,45.77
2018-06-03T08:54:56.370Z,47.30
2018-06-03T08:57:25.643Z,47.47
2018-06-03T08:59:54.623Z,52.27
2018-06-03T09:02:23.349Z,52.63
2018-06-03T09:04:52.048Z,53.27
2018-06-03T09:07:22.859Z,49.73
2018-06-03T09:09:51.887Z,43.70
2018-06-03T09:12:20.863Z,47.00
2018-06-03T09:14:49.930Z,47.03
2018-06-03T09:17:19.038Z,46.73
2018-06-03T09:19:48.554Z,49.83
2018-06-03T09:22:17.602Z,44.47
2018-06-03T09:24:46.575Z,40.30
2018-06-03T09:27:15.528Z,40.63
2018-06-03T09:29:44.598Z,36.50
2018-06-03T09:32:13.770Z,42.73
2018-06-03T09:34:42.726Z,37.13
2018-06-03T09:37:11.919Z,42.33
2018-06-03T09:39:41.049Z,39.20
2018-06-03T09:42:09.732Z,34.63
2018-06-03T09:44:38.488Z,32.00
2018-06-03T09:47:07.530Z,31.93
2018-06-03T09:49:36.618Z,30.10
2018-06-03T09:52:05.606Z,29.20
2018-06-03T09:54:34.548Z,31.27
2018-06-03T09:57:03.624Z,30.23
2018-06-03T09:59:32.635Z,32.20
2018-06-03T10:02:01.680Z,29.80
2018-06-03T10:04:30.710Z,32.53
2018-06-03T10:06:59.699Z,33.00
2018-06-03T10:09:28.747Z,33.37
2018-06-03T10:11:57.749Z,27.27
2018-06-03T10:14:26.445Z,29.47
2018-06-03T10:16:55.337Z,30.90
2018-06-03T10:19:24.951Z,29.53
2018-06-03T10:21:54.059Z,28.87
2018-06-03T10:24:22.981Z,25.97
2018-06-03T10:26:51.956Z,27.23
2018-06-03T10:29:20.945Z,26.90
2018-06-03T10:31:50.078Z,23.90
2018-06-03T10:34:19.242Z,26.47
2018-06-03T10:36:49.556Z,23.00
2018-06-03T10:39:20.634Z,27.20
2018-06-03T10:41:49.799Z,24.27
2018-06-03T10:44:22.670Z,23.83
2018-06-03T10:46:51.643Z,29.33
2018-06-03T10:49:20.607Z,32.67
2018-06-03T10:51:49.535Z,33.10
2018-06-03T10:54:22.208Z,33.63
2018-06-03T10:56:51.108Z,23.20
2018-06-03T10:59:20.075Z,33.57
2018-06-03T11:01:49.082Z,31.83
2018-06-03T11:04:18.260Z,31.07
2018-06-03T11:06:47.270Z,29.50
2018-06-03T11:09:16.243Z,28.13
2018-06-03T11:11:45.283Z,36.80
2018-06-03T11:14:17.990Z,32.33
2018-06-03T11:16:47.143Z,26.30
2018-06-03T11:19:16.306Z,28.33
2018-06-03T11:21:45.231Z,31.00
2018-06-03T11:24:15.365Z,26.47
2018-06-03T11:26:44.576Z,28.70
2018-06-03T11:29:13.243Z,23.83
2018-06-03T11:31:45.302Z,27.20
2018-06-03T11:36:50.139Z,24.00
2018-06-03T11:39:23.127Z,26.53
2018-06-03T11:41:52.351Z,25.00
2018-06-03T11:44:21.060Z,24.37
2018-06-03T11:46:49.823Z,27.00
2018-06-03T11:49:18.813Z,21.73
2018-06-03T11:51:47.799Z,21.47
2018-06-03T11:54:16.746Z,20.53
2018-06-03T11:56:56.851Z,22.83
2018-06-03T11:59:44.529Z,25.80
2018-06-03T12:02:13.382Z,15.80
2018-06-03T12:04:44.928Z,21.97
2018-06-03T12:07:13.981Z,21.13
2018-06-03T12:09:42.910Z,21.23
2018-06-03T12:12:11.960Z,21.83
2018-06-03T12:14:40.879Z,18.03
2018-06-03T12:17:09.835Z,15.10
2018-06-03T12:19:38.839Z,18.17
2018-06-03T12:24:44.603Z,14.87
2018-06-03T12:27:13.726Z,10.63
2018-06-03T12:29:43.170Z,18.03
2018-06-03T12:32:12.383Z,20.07
2018-06-03T12:34:51.238Z,14.80
2018-06-03T12:37:20.497Z,15.20
2018-06-03T12:39:49.613Z,13.57
2018-06-03T12:42:18.852Z,14.90
2018-06-03T12:44:58.771Z,13.40
2018-06-03T12:47:27.952Z,15.23
2018-06-03T12:49:57.514Z,15.33
2018-06-03T12:52:26.522Z,13.60
2018-06-03T12:54:56.287Z,13.10
2018-06-03T12:57:25.422Z,15.93
2018-06-03T12:59:55.110Z,14.20
2018-06-03T13:02:24.714Z,13.83
2018-06-03T13:04:53.708Z,13.17
2018-06-03T13:09:57.066Z,12.57
2018-06-03T13:12:26.083Z,13.10
2018-06-03T13:14:55.190Z,16.70
2018-06-03T13:17:24.198Z,12.57
2018-06-03T13:19:55.047Z,13.97
2018-06-03T13:22:24.186Z,15.77
2018-06-03T13:24:58.162Z,11.90
2018-06-03T13:27:27.205Z,13.73
2018-06-03T13:29:57.754Z,15.57
2018-06-03T13:32:27.458Z,13.30
2018-06-03T13:34:56.444Z,14.33
2018-06-03T13:37:25.364Z,13.80
2018-06-03T13:39:54.390Z,12.87
2018-06-03T13:42:23.332Z,12.43
2018-06-03T13:44:52.383Z,14.83
2018-06-03T13:47:21.404Z,14.70
2018-06-03T13:49:50.518Z,15.17
2018-06-03T13:52:19.415Z,14.17
2018-06-03T13:54:48.420Z,15.07
2018-06-03T13:57:17.397Z,14.70
2018-06-03T13:59:46.527Z,17.70
2018-06-03T14:02:15.678Z,19.27
2018-06-03T14:04:45.794Z,15.47
2018-06-03T14:07:15.008Z,19.53
2018-06-03T14:09:43.930Z,15.20
2018-06-03T14:12:12.861Z,15.17
2018-06-03T14:14:42.032Z,15.90
2018-06-03T14:17:10.999Z,14.60
2018-06-03T14:19:40.073Z,16.53
2018-06-03T14:22:09.041Z,16.23
2018-06-03T14:24:39.298Z,14.97
2018-06-03T14:27:08.383Z,14.47
2018-06-03T14:29:37.298Z,14.60
2018-06-03T14:32:06.315Z,18.33
2018-06-03T14:34:35.245Z,20.07
2018-06-03T14:37:04.489Z,27.23
2018-06-03T14:39:34.967Z,28.13
2018-06-03T14:42:03.613Z,19.30
2018-06-03T14:44:32.410Z,19.07
2018-06-03T14:47:01.403Z,17.93
2018-06-03T14:49:30.360Z,21.80
2018-06-03T14:51:59.574Z,20.57
2018-06-03T14:54:28.570Z,19.27
2018-06-03T14:56:57.581Z,17.37
2018-06-03T14:59:26.450Z,18.70
2018-06-03T15:01:57.227Z,16.80
2018-06-03T15:04:26.289Z,17.47
2018-06-03T15:06:55.328Z,16.70
2018-06-03T15:09:24.328Z,14.00
2018-06-03T15:11:53.276Z,14.20
2018-06-03T15:14:22.237Z,14.20
2018-06-03T15:16:51.345Z,12.93
2018-06-03T15:19:20.288Z,13.47
2018-06-03T15:21:51.374Z,14.97
2018-06-03T15:24:20.340Z,13.97
2018-06-03T15:26:49.321Z,15.70
2018-06-03T15:29:18.277Z,13.87
2018-06-03T15:31:49.114Z,15.13
2018-06-03T15:34:18.076Z,14.43
2018-06-03T15:36:47.477Z,12.80
2018-06-03T15:39:16.550Z,19.03
2018-06-03T15:41:45.467Z,18.93
2018-06-03T15:44:14.621Z,15.60
2018-06-03T15:46:43.537Z,15.47
2018-06-03T15:49:12.487Z,15.53
2018-06-03T15:51:42.459Z,21.47
2018-06-03T15:56:46.714Z,16.07
2018-06-03T15:59:15.769Z,15.43
2018-06-03T16:01:44.715Z,22.17
2018-06-03T16:04:15.274Z,22.73
2018-06-03T16:09:20.316Z,24.87
2018-06-03T16:11:49.360Z,21.67
2018-06-03T16:14:18.510Z,17.97
2018-06-03T16:16:50.171Z,18.87
2018-06-03T16:19:19.906Z,13.53
2018-06-03T16:21:48.851Z,13.67
2018-06-03T16:24:17.861Z,18.13
2018-06-03T16:26:46.915Z,13.13
2018-06-03T16:29:15.858Z,17.70
2018-06-03T16:31:44.904Z,16.33
2018-06-03T16:34:13.859Z,15.83
2018-06-03T16:36:43.302Z,18.13
2018-06-03T16:39:12.371Z,16.30
2018-06-03T16:41:41.351Z,15.50
2018-06-03T16:46:44.800Z,15.37
2018-06-03T16:49:13.798Z,14.80
2018-06-03T16:51:42.986Z,17.87
2018-06-03T16:54:15.835Z,18.13
2018-06-03T16:56:44.812Z,15.87
2018-06-03T16:59:13.865Z,13.20
2018-06-03T17:01:42.914Z,16.57
2018-06-03T17:04:11.898Z,16.63
2018-06-03T17:06:40.875Z,14.23
2018-06-03T17:09:10.714Z,14.30
2018-06-03T17:11:39.443Z,14.13
2018-06-03T17:14:08.206Z,14.93
2018-06-03T17:16:37.442Z,14.10
2018-06-03T17:19:06.397Z,15.13
2018-06-03T17:21:35.317Z,16.50
2018-06-03T17:24:04.328Z,14.47
2018-06-03T17:26:33.348Z,14.80
2018-06-03T17:29:02.272Z,12.73
2018-06-03T17:31:31.391Z,12.43
2018-06-03T17:34:00.506Z,13.27
2018-06-03T17:36:30.246Z,11.73
2018-06-03T17:38:59.204Z,15.30
2018-06-03T17:41:28.375Z,11.43
2018-06-03T17:43:57.302Z,12.80
2018-06-03T17:46:26.279Z,12.27
2018-06-03T17:48:55.356Z,13.67
2018-06-03T17:51:24.378Z,12.17
2018-06-03T17:53:53.352Z,14.13
2018-06-03T17:56:22.354Z,16.17
2018-06-03T17:58:51.470Z,15.27
2018-06-03T18:01:23.647Z,11.47
2018-06-03T18:03:52.616Z,14.90
2018-06-03T18:06:23.711Z,13.77
2018-06-03T18:08:52.750Z,12.13
2018-06-03T18:11:23.527Z,11.20
2018-06-03T18:13:52.235Z,10.93
2018-06-03T18:16:21.202Z,11.37
2018-06-03T18:18:50.251Z,13.17
2018-06-03T18:21:19.310Z,11.70
2018-06-03T18:23:49.732Z,11.90
2018-06-03T18:26:18.691Z,12.90
2018-06-03T18:28:47.695Z,12.37
2018-06-03T18:31:16.644Z,16.70
2018-06-03T18:36:20.354Z,13.23
2018-06-03T18:38:49.362Z,12.30
2018-06-03T18:41:18.285Z,14.10
2018-06-03T18:43:47.410Z,14.33
2018-06-03T18:46:16.358Z,12.60
2018-06-03T18:48:45.459Z,14.30
2018-06-03T18:51:14.385Z,12.20
2018-06-03T18:53:43.459Z,11.00
2018-06-03T18:56:12.460Z,12.47
2018-06-03T18:58:43.518Z,11.73
2018-06-03T19:01:12.462Z,12.10
2018-06-03T19:03:41.130Z,13.03
2018-06-03T19:06:10.003Z,11.07
2018-06-03T19:08:39.110Z,11.63
2018-06-03T19:11:08.043Z,12.70
2018-06-03T19:13:37.229Z,12.90
2018-06-03T19:16:06.244Z,12.53
2018-06-03T19:18:35.376Z,10.33
2018-06-03T19:21:04.294Z,14.67
2018-06-03T19:23:33.379Z,13.90
2018-06-03T19:26:02.350Z,11.10
2018-06-03T19:28:32.752Z,13.20
2018-06-03T19:31:01.638Z,12.40
2018-06-03T19:33:30.579Z,12.87
2018-06-03T19:35:59.289Z,13.43
2018-06-03T19:38:28.137Z,14.33
2018-06-03T19:40:57.236Z,12.83
2018-06-03T19:43:26.082Z,9.87
2018-06-03T19:45:56.215Z,13.97
2018-06-03T19:48:25.115Z,12.93
2018-06-03T19:50:55.180Z,11.07
2018-06-03T19:53:24.096Z,12.20
2018-06-03T19:55:56.950Z,12.53
2018-06-03T19:58:25.881Z,11.67
2018-06-03T20:00:54.828Z,11.10
2018-06-03T20:03:23.794Z,13.53
2018-06-03T20:05:52.887Z,12.50
2018-06-03T20:08:21.884Z,10.83
2018-06-03T20:10:51.051Z,12.23
2018-06-03T20:13:20.165Z,14.67
2018-06-03T20:15:49.331Z,16.13
2018-06-03T20:18:18.343Z,15.60
2018-06-03T20:20:50.511Z,11.87
2018-06-03T20:23:19.515Z,15.97
2018-06-03T20:25:49.011Z,12.50
2018-06-03T20:28:18.103Z,13.07
2018-06-03T20:30:47.228Z,14.57
2018-06-03T20:33:16.150Z,12.20
2018-06-03T21:22:18.835Z,12.07
2018-06-03T21:24:47.911Z,12.40
2018-06-03T21:27:16.986Z,14.57
2018-06-03T21:29:45.942Z,14.53
2018-06-03T21:32:14.877Z,12.93
2018-06-03T21:34:43.785Z,13.90
2018-06-03T21:37:12.726Z,12.73
2018-06-03T21:39:41.879Z,12.57
2018-06-03T21:42:10.856Z,14.97
2018-06-03T21:44:39.748Z,14.33
2018-06-03T21:47:08.730Z,15.50
2018-06-03T21:49:37.718Z,14.97
2018-06-03T21:52:06.793Z,13.57
2018-06-03T21:54:35.693Z,13.67
2018-06-03T21:57:04.626Z,14.30
2018-06-03T21:59:33.670Z,13.07
2018-06-03T22:02:02.607Z,14.97
2018-06-03T22:04:31.612Z,15.23
2018-06-03T22:07:00.652Z,14.77
2018-06-03T22:09:29.613Z,15.50
2018-06-03T22:11:58.534Z,14.93
2018-06-03T22:14:27.458Z,15.70
2018-06-03T22:16:56.422Z,13.17
2018-06-03T22:19:25.540Z,15.37
2018-06-03T22:21:54.455Z,13.93
2018-06-03T22:24:23.438Z,15.33
2018-06-03T22:26:52.403Z,14.90
2018-06-03T22:29:21.367Z,16.67
2018-06-03T22:31:50.389Z,17.43
2018-06-03T22:34:19.446Z,13.43
2018-06-03T22:36:48.342Z,16.03
2018-06-03T22:39:17.311Z,13.97
2018-06-03T22:41:45.935Z,15.03
2018-06-03T22:44:14.773Z,17.53
2018-06-03T22:46:43.612Z,16.80
2018-06-03T22:49:12.311Z,15.27
2018-06-03T22:51:41.423Z,15.93
2018-06-03T22:54:10.374Z,17.13
2018-06-03T22:56:51.073Z,14.20
2018-06-03T22:59:20.064Z,16.93
2018-06-03T23:01:49.070Z,16.20
2018-06-03T23:04:18.967Z,19.10
2018-06-03T23:06:47.907Z,16.03
2018-06-03T23:09:16.854Z,16.00
2018-06-03T23:11:45.551Z,15.90
2018-06-03T23:14:14.286Z,16.70
2018-06-03T23:16:43.422Z,17.60
2018-06-03T23:19:12.365Z,15.87
2018-06-03T23:21:41.407Z,16.27
2018-06-03T23:24:10.815Z,18.73
2018-06-03T23:26:39.907Z,16.57
2018-06-03T23:29:08.894Z,22.87
2018-06-03T23:31:37.850Z,15.07
2018-06-03T23:34:06.779Z,16.80
2018-06-03T23:36:35.870Z,19.63
2018-06-03T23:39:06.046Z,18.10
2018-06-03T23:41:35.054Z,24.60
2018-06-03T23:44:04.099Z,19.80
2018-06-03T23:46:33.130Z,16.87
2018-06-03T23:49:02.161Z,18.70
2018-06-03T23:51:31.097Z,18.93
2018-06-03T23:54:00.066Z,20.03
2018-06-03T23:56:29.039Z,16.73
2018-06-03T23:58:58.037Z,19.80
